Time;durP1;ratioP1;P1;durP2;ratioP2;P2;SDS_P1;SDS_P2;PMS_P1;PMS_P2;Temp;Humidity;BMP_temperature;BMP_pressure;BME280_temperature;BME280_humidity;BME280_pressure;Samples;Min_cycle;Max_cycle;Signal;HPM_P1;HPM_P2
2022/12/14 00:02:11;;;;;;;;;;;;;;;-1.31;60.66;100066.38;5037216;28;19925;-51
2022/12/14 00:04:36;;;;;;;;;;;;;;;-1.40;60.72;100068.75;5047137;28;19932;-51
2022/12/14 00:07:01;;;;;;;;;;;;;;;-1.38;60.65;100067.09;5041644;28;20296;-53
2022/12/14 00:09:27;;;;;;;;;;;;;;;-1.33;60.55;100065.47;5041511;28;19972;-55
2022/12/14 00:11:52;;;;;;;;;;;;;;;-1.36;60.32;100074.84;5039921;28;19931;-52
2022/12/14 00:14:18;;;;;;;;;;;;;;;-1.39;60.20;100078.25;5050349;28;20426;-55
2022/12/14 00:16:43;;;;;;;;;;;;;;;-1.45;60.32;100065.22;5051017;28;19921;-53
2022/12/14 00:19:09;;;;;;;;;;;;;;;-1.43;60.35;100066.13;5038797;28;19989;-53
2022/12/14 00:21:35;;;;;;;;;;;;;;;-1.49;60.36;100071.13;5050944;28;20457;-52
2022/12/14 00:24:00;;;;;;;;;;;;;;;-1.46;60.70;100076.34;5039905;28;19921;-51
2022/12/14 00:26:27;;;;;;;;;;;;;;;-1.53;60.67;100074.47;5037288;28;19926;-54
2022/12/14 00:28:54;;;;;;;;;;;;;;;-1.52;60.56;100076.22;5050752;28;20022;-51
2022/12/14 00:31:19;;;;;;;;;;;;;;;-1.55;60.30;100071.88;5047499;28;20280;-51
2022/12/14 00:33:45;;;;;;;;;;;;;;;-1.61;60.21;100069.16;5043166;28;20062;-54
2022/12/14 00:36:11;;;;;;;;;;;;;;;-1.58;60.29;100073.50;5052572;28;20390;-51
2022/12/14 00:38:36;;;;;;;;;;;;;;;-1.57;60.41;100070.97;5048428;28;19928;-54
2022/12/14 00:41:02;;;;;;;;;;;;;;;-1.64;60.27;100063.91;5041795;28;20304;-53
2022/12/14 00:43:28;;;;;;;;;;;;;;;-1.77;60.51;100075.66;5039258;28;19920;-54
2022/12/14 00:45:53;;;;;;;;;;;;;;;-1.79;60.73;100072.19;5046699;28;19928;-54
2022/12/14 00:48:19;;;;;;;;;;;;;;;-1.80;60.84;100082.44;5046965;28;19956;-58
2022/12/14 00:50:45;;;;;;;;;;;;;;;-1.77;60.48;100077.38;5037944;28;19925;-56
2022/12/14 00:53:10;;;;;;;;;;;;;;;-1.79;60.50;100073.91;5050571;28;19924;-58
2022/12/14 00:55:36;;;;;;;;;;;;;;;-1.77;60.39;100067.06;5049411;28;19932;-52
2022/12/14 00:58:01;;;;;;;;;;;;;;;-2.06;60.59;100072.41;5038277;28;20340;-55
2022/12/14 01:00:26;;;;;;;;;;;;;;;-1.82;60.54;100079.84;5039049;28;19935;-55
2022/12/14 01:02:52;;;;;;;;;;;;;;;-1.81;60.55;100084.16;5049850;28;19972;-54
2022/12/14 01:05:17;;;;;;;;;;;;;;;-1.80;60.15;100072.13;5052185;28;20312;-55
2022/12/14 01:07:42;;;;;;;;;;;;;;;-1.96;60.21;100070.91;5046909;28;20008;-53
2022/12/14 01:10:08;;;;;;;;;;;;;;;-1.95;60.40;100064.09;5035025;28;19948;-56
2022/12/14 01:12:33;;;;;;;;;;;;;;;-1.88;60.39;100069.38;5040222;28;19994;-52
2022/12/14 01:14:58;;;;;;;;;;;;;;;-1.78;60.24;100060.19;5040339;28;20258;-50
2022/12/14 01:17:24;;;;;;;;;;;;;;;-1.89;59.83;100065.06;5047880;28;19932;-53
2022/12/14 01:19:49;;;;;;;;;;;;;;;-1.89;60.15;100065.06;5044337;28;19921;-50
2022/12/14 01:22:14;;;;;;;;;;;;;;;-1.96;60.22;100059.75;5035085;28;19932;-52
2022/12/14 01:24:42;;;;;;;;;;;;;;;-1.94;60.11;100058.09;5038048;28;20385;-52
2022/12/14 01:27:07;;;;;;;;;;;;;;;-2.03;59.95;100059.63;5037199;28;19921;-51
2022/12/14 01:29:33;;;;;;;;;;;;;;;-2.04;60.28;100057.84;5036812;28;20019;-51
2022/12/14 01:31:58;;;;;;;;;;;;;;;-2.00;60.33;100056.22;5044761;28;19925;-51
2022/12/14 01:34:23;;;;;;;;;;;;;;;-2.10;60.27;100051.69;5047652;28;20369;-49
2022/12/14 01:36:48;;;;;;;;;;;;;;;-2.12;60.21;100053.34;5047882;28;20003;-52
2022/12/14 01:39:14;;;;;;;;;;;;;;;-2.05;60.18;100050.09;5051307;28;19924;-52
2022/12/14 01:41:44;;;;;;;;;;;;;;;-2.04;60.00;100046.69;5047096;28;19925;-52
2022/12/14 01:44:09;;;;;;;;;;;;;;;-2.03;59.51;100048.44;5036133;28;19925;-52
2022/12/14 01:46:38;;;;;;;;;;;;;;;-2.08;59.93;100037.16;5042735;28;19928;-51
2022/12/14 01:49:10;;;;;;;;;;;;;;;-2.10;59.90;100038.84;5047493;28;19921;-52
2022/12/14 01:51:36;;;;;;;;;;;;;;;-2.19;59.87;100041.16;5050375;28;19917;-51
2022/12/14 01:54:03;;;;;;;;;;;;;;;-2.33;60.31;100041.72;5044008;28;20028;-54
2022/12/14 01:56:29;;;;;;;;;;;;;;;-2.29;60.23;100046.09;5035852;28;19925;-51
2022/12/14 01:58:56;;;;;;;;;;;;;;;-2.46;60.42;100042.25;5037246;28;19924;-51
2022/12/14 02:01:21;;;;;;;;;;;;;;;-2.48;60.30;100044.75;5043702;28;19928;-50
2022/12/14 02:03:49;;;;;;;;;;;;;;;-2.35;60.40;100033.09;5040477;28;20287;-54
2022/12/14 02:06:34;;;;;;;;;;;;;;;-2.31;60.11;100032.34;5039324;28;19928;-53
2022/12/14 02:09:01;;;;;;;;;;;;;;;-2.47;60.37;100037.94;5046156;28;19935;-53
2022/12/14 02:11:49;;;;;;;;;;;;;;;-2.49;60.43;100039.59;5035134;28;19928;-60
2022/12/14 02:14:15;;;;;;;;;;;;;;;-2.46;60.28;100039.66;5016194;28;20014;-52
2022/12/14 02:16:40;;;;;;;;;;;;;;;-2.28;60.13;100039.25;5046032;28;20064;-54
2022/12/14 02:19:05;;;;;;;;;;;;;;;-2.27;59.71;100041.88;5034766;28;19967;-52
2022/12/14 02:21:49;;;;;;;;;;;;;;;-2.25;59.68;100041.91;5047756;28;20289;-54
2022/12/14 02:24:18;;;;;;;;;;;;;;;-2.28;59.54;100052.97;5041947;28;19927;-51
2022/12/14 02:26:58;;;;;;;;;;;;;;;-2.26;59.51;100051.31;5037441;28;19972;-53
2022/12/14 02:29:52;;;;;;;;;;;;;;;-2.30;59.55;100046.94;5034616;28;19928;-52
2022/12/14 02:32:21;;;;;;;;;;;;;;;-2.28;59.44;100046.97;5030765;28;20344;-51
2022/12/14 02:34:49;;;;;;;;;;;;;;;-2.21;59.46;100045.41;5050485;28;20012;-54
2022/12/14 02:37:21;;;;;;;;;;;;;;;-2.24;59.19;100044.50;5042751;28;19928;-51
2022/12/14 02:39:50;;;;;;;;;;;;;;;-2.28;59.11;100034.97;5043859;28;19924;-54
2022/12/14 02:42:23;;;;;;;;;;;;;;;-2.18;59.00;100038.66;5035199;28;19921;-55
2022/12/14 02:44:57;;;;;;;;;;;;;;;-2.18;59.10;100036.06;5047128;28;19929;-54
2022/12/14 02:47:25;;;;;;;;;;;;;;;-2.19;58.96;100031.78;5038892;28;20372;-55
2022/12/14 02:49:59;;;;;;;;;;;;;;;-2.19;58.87;100036.00;5046559;28;19974;-52
2022/12/14 02:52:36;;;;;;;;;;;;;;;-2.30;58.98;100034.06;5050263;28;19925;-52
2022/12/14 02:55:08;;;;;;;;;;;;;;;-2.11;58.95;100040.53;5044030;28;20460;-53
2022/12/14 02:57:45;;;;;;;;;;;;;;;-2.16;58.78;100034.38;5036376;28;20365;-51
2022/12/14 03:00:10;;;;;;;;;;;;;;;-2.16;58.32;100030.94;5051010;28;19921;-54
2022/12/14 03:02:37;;;;;;;;;;;;;;;-2.14;58.76;100032.75;5038396;28;19990;-53
2022/12/14 03:05:02;;;;;;;;;;;;;;;-2.10;58.60;100036.25;5035113;28;20365;-52
2022/12/14 03:07:33;;;;;;;;;;;;;;;-2.08;58.38;100029.44;5038636;28;19925;-53
2022/12/14 03:10:09;;;;;;;;;;;;;;;-2.15;58.40;100032.72;5043460;28;19970;-54
2022/12/14 03:12:36;;;;;;;;;;;;;;;-2.31;58.52;100029.75;5046248;28;19920;-51
2022/12/14 03:15:03;;;;;;;;;;;;;;;-2.18;58.59;100027.50;5037945;28;19925;-54
2022/12/14 03:17:30;;;;;;;;;;;;;;;-2.14;58.65;100029.28;5042474;28;20319;-51
2022/12/14 03:20:00;;;;;;;;;;;;;;;-2.26;58.52;100030.75;5050056;28;19949;-51
2022/12/14 03:22:35;;;;;;;;;;;;;;;-2.21;58.38;100023.13;5046909;28;19920;-55
2022/12/14 03:25:04;;;;;;;;;;;;;;;-2.29;58.35;100028.09;5042427;28;19928;-52
2022/12/14 03:27:32;;;;;;;;;;;;;;;-2.32;58.27;100020.28;5033875;28;19924;-50
2022/12/14 03:29:59;;;;;;;;;;;;;;;-2.30;58.44;100021.19;5034942;28;19931;-53
2022/12/14 03:32:26;;;;;;;;;;;;;;;-2.36;58.60;100023.63;5041817;28;19932;-51
2022/12/14 03:34:56;;;;;;;;;;;;;;;-2.37;58.46;100023.59;5054840;28;19917;-52
2022/12/14 03:37:21;;;;;;;;;;;;;;;-2.41;58.33;100020.06;5040253;28;19925;-52
2022/12/14 03:39:46;;;;;;;;;;;;;;;-2.40;58.28;100020.94;5037548;28;19979;-52
2022/12/14 03:42:12;;;;;;;;;;;;;;;-2.61;58.08;100022.13;5036402;28;20373;-51
2022/12/14 03:45:00;;;;;;;;;;;;;;;-2.53;58.45;100019.75;5036331;28;19917;-53
2022/12/14 03:47:32;;;;;;;;;;;;;;;-2.50;58.44;100028.44;5037981;28;20004;-55
2022/12/14 03:50:03;;;;;;;;;;;;;;;-2.57;58.40;100028.22;5056714;28;20035;-51
2022/12/14 03:52:35;;;;;;;;;;;;;;;-2.57;58.46;100017.94;5036680;28;19952;-54
2022/12/14 03:55:03;;;;;;;;;;;;;;;-2.55;58.45;100026.59;5036983;28;19943;-51
2022/12/14 03:57:40;;;;;;;;;;;;;;;-2.59;58.60;100020.50;5037101;28;19928;-54
2022/12/14 04:00:08;;;;;;;;;;;;;;;-2.67;58.49;100015.94;5036481;28;20281;-53
2022/12/14 04:02:52;;;;;;;;;;;;;;;-2.68;58.61;100009.06;5036424;28;19921;-49
2022/12/14 04:05:22;;;;;;;;;;;;;;;-2.65;58.42;100011.72;5042007;28;21560;-55
2022/12/14 04:07:57;;;;;;;;;;;;;;;-2.76;58.44;100014.88;5036494;28;19968;-52
2022/12/14 04:18:56;;;;;;;;;;;;;;;-2.66;58.32;100005.72;5051544;28;20355;-52
2022/12/14 04:21:30;;;;;;;;;;;;;;;-2.76;58.39;100007.16;5046608;28;19927;-52
2022/12/14 04:26:48;;;;;;;;;;;;;;;-2.72;58.19;100008.13;5049326;28;20415;-54
2022/12/14 04:32:04;;;;;;;;;;;;;;;-2.69;58.05;100007.34;5040897;28;20395;-53
2022/12/14 04:34:30;;;;;;;;;;;;;;;-2.79;58.07;100001.97;5041058;28;19932;-54
2022/12/14 04:36:58;;;;;;;;;;;;;;;-2.77;58.16;100002.88;5048617;28;20431;-54
2022/12/14 04:39:29;;;;;;;;;;;;;;;-2.77;58.27;100002.88;5041658;28;19943;-55
2022/12/14 04:41:57;;;;;;;;;;;;;;;-2.81;58.40;100001.03;5051212;28;19994;-56
2022/12/14 04:44:29;;;;;;;;;;;;;;;-2.80;58.16;100000.22;5049583;28;19991;-53
2022/12/14 04:46:56;;;;;;;;;;;;;;;-2.84;58.16;100003.53;5041212;28;19925;-53
2022/12/14 04:49:40;;;;;;;;;;;;;;;-2.80;58.50;100002.78;5037725;28;20381;-54
2022/12/14 04:52:10;;;;;;;;;;;;;;;-2.85;58.42;99999.22;5047138;28;19928;-55
2022/12/14 04:54:38;;;;;;;;;;;;;;;-2.82;58.00;99991.59;5049986;28;20011;-54
2022/12/14 04:57:08;;;;;;;;;;;;;;;-2.80;58.35;99994.19;5043661;28;19921;-51
2022/12/14 04:59:34;;;;;;;;;;;;;;;-2.91;58.13;99998.19;5037712;28;19928;-54
2022/12/14 05:02:08;;;;;;;;;;;;;;;-2.89;58.22;99993.97;5047202;28;20300;-53
2022/12/14 05:04:54;;;;;;;;;;;;;;;-2.96;58.16;99990.34;5042691;28;19928;-54
2022/12/14 05:07:19;;;;;;;;;;;;;;;-3.04;58.69;99986.72;5055463;28;20023;-52
2022/12/14 05:09:44;;;;;;;;;;;;;;;-3.07;58.31;99992.66;5050558;28;20012;-51
2022/12/14 05:12:19;;;;;;;;;;;;;;;-3.06;58.54;99980.69;5042653;28;20284;-53
2022/12/14 05:14:48;;;;;;;;;;;;;;;-3.07;58.66;99981.47;5046293;28;19920;-51
2022/12/14 05:17:13;;;;;;;;;;;;;;;-3.13;58.66;99984.78;5049668;28;19975;-54
2022/12/14 05:19:46;;;;;;;;;;;;;;;-3.11;58.52;99983.13;5047332;28;19964;-53
2022/12/14 05:22:11;;;;;;;;;;;;;;;-3.10;58.66;99971.16;5036740;28;20404;-54
2022/12/14 05:24:36;;;;;;;;;;;;;;;-3.08;58.30;99967.75;5037855;28;19933;-52
2022/12/14 05:27:02;;;;;;;;;;;;;;;-3.09;58.61;99965.16;5036726;28;19925;-57
2022/12/14 05:29:27;;;;;;;;;;;;;;;-3.13;58.71;99960.78;5037375;28;19948;-55
2022/12/14 05:31:52;;;;;;;;;;;;;;;-3.13;58.66;99966.78;5036761;28;19932;-52
2022/12/14 05:34:18;;;;;;;;;;;;;;;-3.07;58.44;99966.06;5042820;28;20335;-52
2022/12/14 05:36:43;;;;;;;;;;;;;;;-3.14;58.65;99961.63;5036725;28;19932;-53
2022/12/14 05:39:08;;;;;;;;;;;;;;;-3.27;58.82;99963.84;5038705;28;20389;-50
2022/12/14 05:41:33;;;;;;;;;;;;;;;-3.11;58.59;99966.81;5041149;28;19933;-52
2022/12/14 05:43:59;;;;;;;;;;;;;;;-3.09;58.36;99960.03;5037608;28;20391;-50
2022/12/14 05:46:24;;;;;;;;;;;;;;;-3.10;58.43;99963.44;5044283;28;20335;-49
2022/12/14 05:48:49;;;;;;;;;;;;;;;-3.14;58.40;99959.91;5046226;28;20015;-51
2022/12/14 05:51:16;;;;;;;;;;;;;;;-3.26;58.72;99955.31;5039773;28;19948;-52
2022/12/14 05:53:41;;;;;;;;;;;;;;;-3.42;58.72;99954.84;5036351;28;20438;-52
2022/12/14 05:56:08;;;;;;;;;;;;;;;-3.25;58.91;99949.34;5051516;28;19940;-54
2022/12/14 05:58:34;;;;;;;;;;;;;;;-3.27;58.89;99956.16;5039425;28;20016;-50
2022/12/14 06:01:07;;;;;;;;;;;;;;;-3.28;58.67;99956.09;5040679;28;20411;-51
2022/12/14 06:03:33;;;;;;;;;;;;;;;-3.29;58.68;99951.78;5050216;28;19968;-53
2022/12/14 06:06:09;;;;;;;;;;;;;;;-3.23;58.76;99962.25;5049268;28;19921;-55
2022/12/14 06:08:35;;;;;;;;;;;;;;;-3.27;58.87;99952.69;5049835;28;19920;-54
2022/12/14 06:11:07;;;;;;;;;;;;;;;-3.23;58.46;99942.56;5049853;28;19931;-54
2022/12/14 06:13:36;;;;;;;;;;;;;;;-3.19;58.19;99946.06;5049482;28;20006;-55
2022/12/14 06:16:12;;;;;;;;;;;;;;;-3.21;58.41;99950.28;5044653;28;19972;-55
2022/12/14 06:18:56;;;;;;;;;;;;;;;-3.16;58.20;99950.41;5036249;28;19995;-51
2022/12/14 06:21:22;;;;;;;;;;;;;;;-3.17;58.18;99946.97;5035922;28;19928;-53
2022/12/14 06:23:48;;;;;;;;;;;;;;;-3.17;58.21;99953.81;5036486;28;19917;-49
2022/12/14 06:26:14;;;;;;;;;;;;;;;-3.15;58.10;99965.00;5036136;28;20035;-52
2022/12/14 06:28:39;;;;;;;;;;;;;;;-3.15;58.37;99962.41;5036827;28;20034;-53
2022/12/14 06:31:05;;;;;;;;;;;;;;;-3.15;57.94;99963.31;5040946;28;19931;-55
2022/12/14 06:33:31;;;;;;;;;;;;;;;-3.15;58.22;99967.56;5049584;28;19927;-54
2022/12/14 06:35:57;;;;;;;;;;;;;;;-3.26;58.47;99967.28;5049080;28;19921;-52
2022/12/14 06:38:22;;;;;;;;;;;;;;;-3.26;58.51;99963.03;5050283;28;19927;-54
2022/12/14 06:40:47;;;;;;;;;;;;;;;-3.23;58.33;99965.69;5048372;28;19932;-52
2022/12/14 06:43:12;;;;;;;;;;;;;;;-3.26;58.14;99968.16;5049827;28;20415;-51
2022/12/14 06:45:38;;;;;;;;;;;;;;;-3.21;58.40;99968.28;5046084;28;19925;-52
2022/12/14 06:48:03;;;;;;;;;;;;;;;-3.21;58.62;99968.28;5036552;28;20242;-53
2022/12/14 06:50:29;;;;;;;;;;;;;;;-3.23;58.46;99968.25;5032865;28;19970;-55
2022/12/14 06:52:57;;;;;;;;;;;;;;;-3.16;58.46;99963.25;5033691;28;20304;-53
2022/12/14 06:55:23;;;;;;;;;;;;;;;-3.22;57.97;99962.28;5033435;28;19917;-54
2022/12/14 06:57:49;;;;;;;;;;;;;;;-3.14;58.33;99957.34;5034185;28;19944;-52
2022/12/14 07:00:14;;;;;;;;;;;;;;;-3.17;57.95;99961.53;5033765;28;20408;-54
2022/12/14 07:02:39;;;;;;;;;;;;;;;-3.18;58.09;99962.38;5032490;28;19925;-55
2022/12/14 07:05:05;;;;;;;;;;;;;;;-3.17;58.24;99961.53;5033521;28;20300;-53
2022/12/14 07:07:31;;;;;;;;;;;;;;;-3.08;58.29;99972.03;5035224;28;19921;-54
2022/12/14 07:09:57;;;;;;;;;;;;;;;-3.09;58.24;99970.31;5037645;28;20288;-55
2022/12/14 07:12:22;;;;;;;;;;;;;;;-2.99;58.10;99974.88;5037956;28;19932;-53
2022/12/14 07:14:47;;;;;;;;;;;;;;;-2.98;57.55;99969.75;5035898;28;19928;-55
2022/12/14 07:17:12;;;;;;;;;;;;;;;-2.98;57.69;99968.91;5037479;28;19968;-52
2022/12/14 07:19:38;;;;;;;;;;;;;;;-2.90;57.65;99977.69;5036953;28;20336;-53
2022/12/14 07:22:03;;;;;;;;;;;;;;;-2.96;57.71;99977.50;5038415;28;19968;-55
2022/12/14 07:24:29;;;;;;;;;;;;;;;-2.95;57.85;99980.94;5043867;28;19925;-54
2022/12/14 07:26:55;;;;;;;;;;;;;;;-2.83;57.79;99992.44;5040599;28;19975;-54
2022/12/14 07:29:20;;;;;;;;;;;;;;;-2.78;58.08;99985.69;5044607;28;19925;-56
2022/12/14 07:31:46;;;;;;;;;;;;;;;-2.73;57.72;99981.53;5035232;28;20389;-55
2022/12/14 07:34:11;;;;;;;;;;;;;;;-2.65;57.92;99976.59;5039938;28;19948;-53
2022/12/14 07:36:37;;;;;;;;;;;;;;;-2.68;57.86;99985.94;5046671;28;19928;-55
2022/12/14 07:39:02;;;;;;;;;;;;;;;-2.48;58.04;99982.16;5048291;28;19925;-54
2022/12/14 07:41:29;;;;;;;;;;;;;;;-2.47;57.75;99983.91;5039025;28;20359;-54
2022/12/14 07:43:55;;;;;;;;;;;;;;;-2.43;57.82;99984.81;5038428;28;19940;-56
2022/12/14 07:46:22;;;;;;;;;;;;;;;-2.36;57.79;99982.44;5049382;28;19942;-54
2022/12/14 07:48:49;;;;;;;;;;;;;;;-2.36;57.70;99986.72;5043858;28;19921;-54
2022/12/14 07:51:16;;;;;;;;;;;;;;;-2.18;57.61;99991.44;5040427;28;19961;-54
2022/12/14 07:53:41;;;;;;;;;;;;;;;-2.18;57.38;99994.03;5052447;28;19971;-54
2022/12/14 07:56:11;;;;;;;;;;;;;;;-2.26;57.52;99984.41;5052910;28;19925;-54
2022/12/14 07:58:37;;;;;;;;;;;;;;;-2.07;57.23;99984.84;5045747;28;19927;-54
2022/12/14 08:01:09;;;;;;;;;;;;;;;-2.17;56.92;99988.03;5053216;28;20007;-55
2022/12/14 08:03:35;;;;;;;;;;;;;;;-2.01;57.08;99990.97;5051618;28;19920;-54
2022/12/14 08:06:07;;;;;;;;;;;;;;;-1.94;56.83;99988.56;5053190;28;20019;-54
2022/12/14 08:08:33;;;;;;;;;;;;;;;-1.91;56.78;99992.09;5050506;28;19935;-54
2022/12/14 08:10:59;;;;;;;;;;;;;;;-1.92;57.06;99992.88;5052773;28;20029;-53
2022/12/14 08:13:24;;;;;;;;;;;;;;;-1.82;56.87;99994.84;5051439;28;19955;-54
2022/12/14 08:15:49;;;;;;;;;;;;;;;-1.87;56.46;99998.16;5052860;28;19928;-51
2022/12/14 08:18:15;;;;;;;;;;;;;;;-1.68;56.16;99992.56;5051920;28;20300;-55
2022/12/14 08:20:40;;;;;;;;;;;;;;;-1.79;56.34;100001.78;5050979;28;19929;-55
2022/12/14 08:23:05;;;;;;;;;;;;;;;-1.88;56.66;100002.44;5052120;28;19925;-56
2022/12/14 08:25:31;;;;;;;;;;;;;;;-1.69;56.24;100006.28;5049885;28;19931;-55
2022/12/14 08:27:56;;;;;;;;;;;;;;;-1.79;56.25;100017.25;5052790;28;19925;-55
2022/12/14 08:30:21;;;;;;;;;;;;;;;-1.74;56.25;100015.63;5051784;28;19952;-54
2022/12/14 08:32:46;;;;;;;;;;;;;;;-1.57;56.32;100023.72;5032327;28;19925;-52
2022/12/14 08:35:12;;;;;;;;;;;;;;;-1.53;55.62;100028.09;5038156;28;19979;-54
2022/12/14 08:37:37;;;;;;;;;;;;;;;-1.33;55.32;100031.97;5039066;28;19927;-53
2022/12/14 08:40:03;;;;;;;;;;;;;;;-1.12;54.72;100030.66;5037912;28;19925;-53
2022/12/14 08:42:28;;;;;;;;;;;;;;;-0.99;54.54;100027.50;5038794;28;20396;-55
2022/12/14 08:44:53;;;;;;;;;;;;;;;-0.73;54.26;100025.38;5037787;28;19932;-54
2022/12/14 08:47:18;;;;;;;;;;;;;;;-0.56;53.71;100030.84;5037015;28;19925;-53
2022/12/14 08:49:44;;;;;;;;;;;;;;;-0.45;53.36;100034.47;5038351;28;20258;-56
2022/12/14 08:52:09;;;;;;;;;;;;;;;-0.79;53.55;100023.56;5042749;28;19928;-54
2022/12/14 08:54:34;;;;;;;;;;;;;;;-0.63;53.59;100023.84;5038702;28;20377;-53
2022/12/14 08:57:00;;;;;;;;;;;;;;;-0.45;53.27;100023.28;5037445;28;19965;-53
2022/12/14 08:59:26;;;;;;;;;;;;;;;-0.62;53.22;100030.75;5047613;28;20288;-53
2022/12/14 09:01:51;;;;;;;;;;;;;;;-0.79;53.13;100022.72;5043190;28;19925;-54
2022/12/14 09:04:16;;;;;;;;;;;;;;;-0.87;53.63;100019.97;5037475;28;20399;-53
2022/12/14 09:06:41;;;;;;;;;;;;;;;-0.83;54.01;100026.94;5038458;28;19932;-50
2022/12/14 09:09:07;;;;;;;;;;;;;;;-0.61;53.81;100019.56;5037329;28;20459;-55
2022/12/14 09:11:32;;;;;;;;;;;;;;;-0.57;53.13;100021.38;5038510;28;19929;-53
2022/12/14 09:13:57;;;;;;;;;;;;;;;-0.55;53.36;100009.38;5036654;28;20440;-54
2022/12/14 09:16:25;;;;;;;;;;;;;;;-0.45;53.19;100002.63;5035164;28;19925;-57
2022/12/14 09:18:50;;;;;;;;;;;;;;;-0.50;53.30;100016.34;5048382;28;19924;-55
2022/12/14 09:21:16;;;;;;;;;;;;;;;-0.93;53.84;100001.78;5051020;28;19920;-53
2022/12/14 09:23:42;;;;;;;;;;;;;;;-0.74;54.09;100005.59;5043809;28;20352;-54
2022/12/14 09:26:12;;;;;;;;;;;;;;;-0.60;54.09;99998.06;5037674;28;19970;-56
2022/12/14 09:28:38;;;;;;;;;;;;;;;-0.46;54.28;99986.28;5040552;28;19983;-53
2022/12/14 09:31:05;;;;;;;;;;;;;;;-0.31;53.76;99980.50;5037306;28;20008;-53
2022/12/14 09:33:30;;;;;;;;;;;;;;;-0.30;54.15;99979.66;5035771;28;21509;-54
2022/12/14 09:36:00;;;;;;;;;;;;;;;-0.24;54.32;99977.16;5037377;28;19974;-54
2022/12/14 09:38:25;;;;;;;;;;;;;;;-0.26;54.40;99984.03;5037203;28;19925;-54
2022/12/14 09:41:01;;;;;;;;;;;;;;;-0.32;54.68;99977.06;5045712;28;19921;-55
2022/12/14 09:43:26;;;;;;;;;;;;;;;-0.07;54.46;99980.03;5035330;28;19924;-53
2022/12/14 09:45:54;;;;;;;;;;;;;;;0.05;54.39;99976.75;5042583;28;19921;-55
2022/12/14 09:48:23;;;;;;;;;;;;;;;0.03;54.28;99976.72;5040539;28;19920;-54
2022/12/14 09:50:49;;;;;;;;;;;;;;;0.07;54.38;99973.31;5054356;28;19943;-53
2022/12/14 09:53:16;;;;;;;;;;;;;;;0.18;54.48;99957.97;5042237;28;20019;-54
2022/12/14 09:55:46;;;;;;;;;;;;;;;0.24;54.12;99958.94;5043782;28;19932;-53
2022/12/14 09:58:28;;;;;;;;;;;;;;;0.38;54.35;99951.34;5059953;28;20459;-52
2022/12/14 10:01:11;;;;;;;;;;;;;;;0.56;53.82;99940.38;5043267;28;19928;-56
2022/12/14 10:03:55;;;;;;;;;;;;;;;0.67;53.73;99932.72;5048509;28;19920;-54
2022/12/14 10:06:36;;;;;;;;;;;;;;;0.70;53.45;99925.88;5037394;28;19922;-53
2022/12/14 10:09:24;;;;;;;;;;;;;;;0.86;53.27;99929.50;5047177;28;19963;-56
2022/12/14 10:11:55;;;;;;;;;;;;;;;0.95;53.10;99920.94;5042886;28;20336;-51
2022/12/14 10:14:39;;;;;;;;;;;;;;;1.16;52.74;99918.59;5042473;28;20044;-52
2022/12/14 10:17:25;;;;;;;;;;;;;;;1.23;52.64;99910.00;5038085;28;19928;-55
2022/12/14 10:19:50;;;;;;;;;;;;;;;1.13;52.79;99905.59;5035874;28;20427;-51
2022/12/14 10:22:17;;;;;;;;;;;;;;;1.22;53.20;99899.63;5039030;28;19921;-54
2022/12/14 10:24:44;;;;;;;;;;;;;;;1.25;53.05;99896.22;5037953;28;19928;-55
2022/12/14 10:27:16;;;;;;;;;;;;;;;1.26;52.94;99893.63;5039442;28;19920;-53
2022/12/14 10:29:45;;;;;;;;;;;;;;;1.37;52.71;99901.50;5049585;28;20077;-57
2022/12/14 10:32:21;;;;;;;;;;;;;;;1.31;52.82;99901.44;5062888;28;19925;-57
2022/12/14 10:34:47;;;;;;;;;;;;;;;1.34;52.79;99899.75;5071560;28;19917;-55
2022/12/14 10:37:34;;;;;;;;;;;;;;;1.37;52.89;99893.72;5032876;28;19918;-52
2022/12/14 10:40:16;;;;;;;;;;;;;;;1.35;53.20;99885.94;5048657;28;20000;-54
2022/12/14 10:42:41;;;;;;;;;;;;;;;1.47;52.75;99887.75;5050308;28;19964;-52
2022/12/14 10:45:09;;;;;;;;;;;;;;;1.48;52.41;99882.59;5049771;28;19970;-54
2022/12/14 10:47:39;;;;;;;;;;;;;;;1.64;52.63;99890.47;5051444;28;19920;-53
2022/12/14 10:50:05;;;;;;;;;;;;;;;1.69;52.28;99875.81;5033490;28;19952;-51
2022/12/14 10:52:35;;;;;;;;;;;;;;;1.66;52.33;99880.97;5043930;28;19986;-53
2022/12/14 10:55:02;;;;;;;;;;;;;;;1.67;52.40;99875.78;5033594;28;19925;-53
2022/12/14 10:57:28;;;;;;;;;;;;;;;1.66;52.16;99871.47;5033800;28;19921;-52
2022/12/14 10:59:54;;;;;;;;;;;;;;;1.64;52.24;99867.16;5034806;28;19928;-52
2022/12/14 11:02:21;;;;;;;;;;;;;;;1.77;52.24;99865.50;5033723;28;20004;-52
2022/12/14 11:04:58;;;;;;;;;;;;;;;1.83;51.89;99857.75;5033735;28;19970;-51
2022/12/14 11:07:32;;;;;;;;;;;;;;;1.78;51.53;99849.09;5032450;28;19917;-52
2022/12/14 11:10:16;;;;;;;;;;;;;;;1.81;51.21;99841.34;5033928;28;19940;-56
2022/12/14 11:12:50;;;;;;;;;;;;;;;1.75;51.09;99838.72;5033367;28;19917;-55
2022/12/14 11:15:23;;;;;;;;;;;;;;;1.71;50.86;99838.69;5033900;28;19917;-53
2022/12/14 11:17:58;;;;;;;;;;;;;;;1.58;51.67;99846.41;5034189;28;19917;-55
2022/12/14 11:20:26;;;;;;;;;;;;;;;1.71;51.39;99845.59;5033620;28;19918;-52
2022/12/14 11:23:04;;;;;;;;;;;;;;;1.50;51.43;99837.72;5033852;28;19928;-54
2022/12/14 11:25:33;;;;;;;;;;;;;;;1.62;51.62;99843.84;5033582;28;19924;-55
2022/12/14 11:28:00;;;;;;;;;;;;;;;1.45;51.66;99840.28;5033017;28;19943;-54
2022/12/14 11:30:27;;;;;;;;;;;;;;;1.62;51.88;99836.06;5033435;28;19924;-55
2022/12/14 11:32:52;;;;;;;;;;;;;;;1.78;52.05;99828.38;5033539;28;19918;-54
2022/12/14 11:35:19;;;;;;;;;;;;;;;1.78;52.04;99828.38;5033523;28;20012;-56
2022/12/14 11:37:46;;;;;;;;;;;;;;;2.13;51.32;99826.81;5033329;28;19917;-55
2022/12/14 11:40:20;;;;;;;;;;;;;;;2.42;50.60;99833.81;5033475;28;20011;-55
2022/12/14 11:42:46;;;;;;;;;;;;;;;2.58;50.39;99824.34;5033594;28;20407;-56
2022/12/14 11:45:24;;;;;;;;;;;;;;;2.68;49.87;99826.97;5033199;28;20363;-54
2022/12/14 11:48:08;;;;;;;;;;;;;;;2.64;49.98;99812.25;5033199;28;19917;-54
2022/12/14 11:50:33;;;;;;;;;;;;;;;2.73;50.16;99814.00;5033268;28;19924;-56
2022/12/14 11:53:05;;;;;;;;;;;;;;;2.79;49.85;99811.38;5033946;28;20327;-56
2022/12/14 11:55:32;;;;;;;;;;;;;;;2.84;49.76;99808.81;5035782;28;19928;-55
2022/12/14 11:57:58;;;;;;;;;;;;;;;2.52;50.73;99801.88;5036740;28;19973;-56
2022/12/14 12:00:29;;;;;;;;;;;;;;;2.49;50.86;99804.44;5036726;28;20360;-56
2022/12/14 12:03:21;;;;;;;;;;;;;;;2.53;51.11;99801.00;5036808;28;19924;-55
2022/12/14 12:05:46;;;;;;;;;;;;;;;2.49;50.52;99799.25;5019998;28;19952;-53
2022/12/14 12:08:18;;;;;;;;;;;;;;;2.29;50.56;99798.34;5036756;28;20394;-54
2022/12/14 12:10:45;;;;;;;;;;;;;;;2.12;50.80;99804.34;5036697;28;19917;-53
2022/12/14 12:13:28;;;;;;;;;;;;;;;2.13;50.61;99805.22;5036621;28;19921;-54
2022/12/14 12:15:55;;;;;;;;;;;;;;;2.07;50.52;99813.81;5041062;28;19921;-54
2022/12/14 12:18:32;;;;;;;;;;;;;;;1.94;50.60;99793.91;5050426;28;19931;-56
2022/12/14 12:21:10;;;;;;;;;;;;;;;1.72;50.99;99799.00;5039218;28;20305;-55
2022/12/14 12:23:50;;;;;;;;;;;;;;;1.63;51.20;99804.13;5046267;28;20296;-55
2022/12/14 12:26:22;;;;;;;;;;;;;;;1.68;51.48;99807.63;5050061;28;20047;-56
2022/12/14 12:28:51;;;;;;;;;;;;;;;1.85;51.38;99805.09;5052373;28;19921;-56
2022/12/14 12:31:22;;;;;;;;;;;;;;;1.89;51.53;99796.50;5038467;28;20000;-54
2022/12/14 12:33:51;;;;;;;;;;;;;;;1.93;51.44;99797.38;5039102;28;20292;-55
2022/12/14 12:36:18;;;;;;;;;;;;;;;2.01;51.08;99795.66;5038983;28;19928;-57
2022/12/14 12:38:50;;;;;;;;;;;;;;;2.06;51.36;99798.28;5037918;28;19921;-54
2022/12/14 12:41:24;;;;;;;;;;;;;;;2.12;51.39;99795.72;5051978;28;20015;-56
2022/12/14 12:44:08;;;;;;;;;;;;;;;2.09;51.41;99798.28;5049673;28;19928;-55
2022/12/14 12:46:43;;;;;;;;;;;;;;;2.12;51.41;99798.31;5038110;28;20250;-55
2022/12/14 12:49:11;;;;;;;;;;;;;;;2.02;50.81;99786.16;5040584;28;19935;-55
2022/12/14 12:51:45;;;;;;;;;;;;;;;2.02;51.09;99791.34;5036246;28;19926;-56
2022/12/14 12:54:13;;;;;;;;;;;;;;;1.89;51.09;99787.84;5036103;28;19928;-52
2022/12/14 12:56:38;;;;;;;;;;;;;;;1.78;50.81;99786.94;5036095;28;19921;-53
2022/12/14 12:59:04;;;;;;;;;;;;;;;1.70;50.68;99779.13;5035581;28;19917;-56
2022/12/14 13:01:33;;;;;;;;;;;;;;;1.68;50.93;99784.31;5035765;28;19921;-51
2022/12/14 13:04:01;;;;;;;;;;;;;;;1.63;51.13;99778.22;5035454;28;19918;-53
2022/12/14 13:06:33;;;;;;;;;;;;;;;1.50;51.26;99765.22;5034384;28;19917;-55
2022/12/14 13:09:00;;;;;;;;;;;;;;;1.35;51.77;99776.34;5035128;28;20437;-54